Main page
METAR-TAF:

METAR-TAF

Airports :

RAF Mount Pleasant

Stanley, Falkland Islands

latitude: 51-49S, longitude: 058-27W, elevation: 74 m

Current weather observation

The report was made 41 minutes ago, at 11:50 UTC
Wind 6 kt from the West
Temperature 7°C
Humidity 93%
Pressure 1016 hPa
Visibility 10 km or more
Few clouds at a height of 1600 ft

METAR: EGYP 011150Z 28006KT 9999 FEW016 07/06 Q1016 NOSIG

Time: 09:31 (12:31 UTC)

Forecast

The report was made 1 hour and 21 minutes ago, at 11:10 UTC
Forecast valid from 01 at 12 UTC to 02 at 06 UTC
Wind 8 kt from the West
Visibility 10 km or more
Scattered clouds at a height of 3000 ft

TAF: EGYP 011110Z 0112/0206 27008KT 9999 SCT030

Weather observations and forecasts of more than 4000 airports (METAR and TAF reports).

The available stations are represented by yellow and red dots on the map.

Hover mouse over dot to see the name of the station.

Then click to see weather observations and forecasts.

To change the map : click on the green buttons with a black cross to zoom in, on the green button with a dash to zoom out, or on the green arrows for adjacent maps.


METAR-TAF: